»·PEaware :: ACA256 CYVR-KPDX

ACA256 :: CYVR-KPDX

FLIGHT INFORMATION

Flight Status: Arrived
Operator:
Air Canada
More flights by this operator :: More flights under this callsign
Pilot: Konrad W. (32064)
Aircraft: AIRBUS A320
(A320)
More flights by this aircraft type
Origin: CYVR Vancouver Intl
Canada
Destination: KPDX Portland Intl
United States
More flights between these airports :: More routes between these airports
Route: FSR7 SEA HELNS6
File this flight plan on PilotEdge
Remarks:
Altitude:
(Current/Filed)
33,000ft
Speed:
(Current/Filed)
430kts
Departed: 06-Dec-20 03:41 PM
Arrived: 06-Dec-20 04:33 PM
Distance/Time
Traveled:
217nm/0:52
Distance/Time
To Go:
Arrived

Flight Plot

Page will automatically refresh every two minutes.

Flight plan parsing failed; only flown route is shown


Map Options




Map Legend


Flown Route
Filed Route
Departure Airport
Arrival Airport
Navaid (VOR, NDB)
Fix

Horizontal Profiles

Position Reports

Time Latitude Longitude Heading Altitude Ground
Speed
06-Dec-20 15:26 49.194360 -123.184832 63 22ft 0kts
06-Dec-20 15:27 49.194360 -123.184832 63 22ft 0kts
06-Dec-20 15:28 49.194360 -123.184832 63 22ft 0kts
06-Dec-20 15:29 49.194360 -123.184832 63 22ft 0kts
06-Dec-20 15:30 49.194360 -123.184832 63 22ft 0kts
06-Dec-20 15:31 49.194360 -123.184832 63 22ft 0kts
06-Dec-20 15:32 49.194360 -123.184832 63 22ft 0kts
06-Dec-20 15:33 49.194360 -123.184832 63 22ft 0kts
06-Dec-20 15:34 49.194253 -123.185169 61 22ft 2kts
06-Dec-20 15:35 49.193831 -123.185257 308 22ft 0kts
06-Dec-20 15:36 49.193831 -123.185257 308 22ft 0kts
06-Dec-20 15:37 49.193476 -123.190872 257 22ft 25kts
06-Dec-20 15:38 49.192204 -123.201131 258 22ft 23kts
06-Dec-20 15:39 49.190762 -123.204375 189 23ft 3kts
06-Dec-20 15:40 49.186708 -123.178098 99 202ft 170kts
06-Dec-20 15:41 49.152376 -123.110491 167 4411ft 233kts
06-Dec-20 15:42 49.088285 -123.098013 177 8409ft 234kts
06-Dec-20 15:43 49.019378 -123.080414 172 10818ft 261kts
06-Dec-20 15:44 48.943873 -123.053794 170 13234ft 290kts
06-Dec-20 15:45 48.865614 -123.016691 164 15767ft 299kts
06-Dec-20 15:46 48.785073 -122.975629 163 17796ft 327kts
06-Dec-20 15:47 48.699272 -122.932119 163 18002ft 325kts
06-Dec-20 15:48 48.613448 -122.888872 163 18449ft 329kts
06-Dec-20 15:49 48.527979 -122.845874 163 20036ft 323kts
06-Dec-20 15:50 48.441558 -122.802571 163 22394ft 332kts
06-Dec-20 15:51 48.352045 -122.757890 163 24193ft 349kts
06-Dec-20 15:52 48.256546 -122.710448 162 25464ft 375kts
06-Dec-20 15:53 48.159597 -122.662402 162 25503ft 365kts
06-Dec-20 15:54 48.064598 -122.615518 162 25319ft 359kts
06-Dec-20 15:55 47.970142 -122.569096 161 25314ft 357kts
06-Dec-20 15:56 47.875678 -122.522799 161 25524ft 360kts
06-Dec-20 15:57 47.780616 -122.476546 161 25559ft 363kts
06-Dec-20 15:58 47.679428 -122.427367 160 25562ft 385kts
06-Dec-20 15:59 47.578236 -122.378372 167 25580ft 384kts
06-Dec-20 16:00 47.477900 -122.330308 168 25242ft 385kts
06-Dec-20 16:01 47.377966 -122.309204 185 23720ft 358kts
06-Dec-20 16:02 47.277413 -122.309683 184 21945ft 358kts
06-Dec-20 16:03 47.176539 -122.310643 177 20157ft 362kts
06-Dec-20 16:04 47.077227 -122.309586 179 18436ft 352kts
06-Dec-20 16:05 46.980478 -122.309581 179 16935ft 343kts
06-Dec-20 16:06 46.886216 -122.309582 180 15439ft 336kts
06-Dec-20 16:07 46.793968 -122.309594 180 13940ft 327kts
06-Dec-20 16:08 46.704380 -122.309647 181 12560ft 319kts
06-Dec-20 16:09 46.615982 -122.309623 181 12031ft 320kts
06-Dec-20 16:10 46.528606 -122.309608 181 12036ft 309kts
06-Dec-20 16:11 46.442552 -122.309592 181 12007ft 311kts
06-Dec-20 16:12 46.356167 -122.309605 182 12015ft 311kts
06-Dec-20 16:13 46.269508 -122.314064 191 12046ft 309kts
06-Dec-20 16:14 46.187522 -122.347896 204 12022ft 307kts
06-Dec-20 16:15 46.107642 -122.392993 203 12039ft 296kts
06-Dec-20 16:16 46.033017 -122.434319 203 12057ft 288kts
06-Dec-20 16:17 45.958187 -122.475743 203 11694ft 288kts
06-Dec-20 16:18 45.884785 -122.516128 203 9658ft 273kts
06-Dec-20 16:19 45.813793 -122.550074 201 7469ft 264kts
06-Dec-20 16:20 45.755387 -122.590939 247 5444ft 220kts
06-Dec-20 16:21 45.766504 -122.673803 294 5017ft 220kts
06-Dec-20 16:22 45.794608 -122.752130 297 4328ft 226kts
06-Dec-20 16:24 45.817185 -122.831767 254 3236ft 197kts
06-Dec-20 16:25 45.781068 -122.889112 201 3035ft 198kts
06-Dec-20 16:26 45.730113 -122.900535 160 2876ft 186kts
06-Dec-20 16:27 45.693877 -122.852659 119 3029ft 177kts
06-Dec-20 16:28 45.672588 -122.795436 119 3002ft 162kts
06-Dec-20 16:29 45.651488 -122.741072 119 2302ft 152kts
06-Dec-20 16:30 45.631059 -122.688615 119 1498ft 153kts
06-Dec-20 16:31 45.610412 -122.635531 118 690ft 152kts
06-Dec-20 16:32 45.591782 -122.587842 118 43ft 108kts
06-Dec-20 16:33 45.588483 -122.582351 235 41ft 0kts
06-Dec-20 16:34 45.588522 -122.582815 306 40ft 14kts
06-Dec-20 16:35 45.590497 -122.589968 300 40ft 29kts
06-Dec-20 16:36 45.592031 -122.595663 235 35ft 3kts
06-Dec-20 16:37 45.591893 -122.596007 241 35ft 0kts
06-Dec-20 16:37 45.591893 -122.596007 241 35ft 0kts
06-Dec-20 16:39 45.591893 -122.596007 241 35ft 0kts
06-Dec-20 16:39 45.591893 -122.596007 241 35ft 0kts

Navigation Log

Ident Type
Flight plan parsing failed, navigation log unavailable